Time;durP1;ratioP1;P1;durP2;ratioP2;P2;SDS_P1;SDS_P2;PMS_P1;PMS_P2;Temp;Humidity;BMP_temperature;BMP_pressure;BME280_temperature;BME280_humidity;BME280_pressure;Samples;Min_cycle;Max_cycle;Signal;HPM_P1;HPM_P2
2021/12/26 00:01:49;;;;;;;442.03;32.70;;;5.40;99.90;;;;;;5029440;28;20963;-76
2021/12/26 00:04:16;;;;;;;535.83;31.90;;;5.30;99.90;;;;;;5030224;28;20412;-76
2021/12/26 00:06:43;;;;;;;429.70;31.57;;;5.30;99.90;;;;;;5029937;28;20469;-77
2021/12/26 00:09:09;;;;;;;370.50;24.87;;;5.30;99.90;;;;;;5029995;28;20812;-76
2021/12/26 00:11:35;;;;;;;506.70;35.90;;;5.30;99.90;;;;;;5032359;28;20478;-77
2021/12/26 00:14:01;;;;;;;281.60;22.10;;;5.30;99.90;;;;;;5031237;28;20419;-77
2021/12/26 00:16:26;;;;;;;323.03;24.40;;;5.30;99.90;;;;;;5031091;28;20473;-77
2021/12/26 00:18:52;;;;;;;233.67;26.63;;;5.30;99.90;;;;;;5031510;28;20227;-77
2021/12/26 00:21:21;;;;;;;387.90;36.27;;;5.30;99.90;;;;;;5030136;28;20211;-77
2021/12/26 00:23:47;;;;;;;345.80;32.10;;;5.30;99.90;;;;;;5031871;28;20463;-77
2021/12/26 00:26:13;;;;;;;392.93;31.30;;;5.30;99.90;;;;;;5031578;28;20427;-77
2021/12/26 00:28:39;;;;;;;374.93;27.17;;;5.20;99.90;;;;;;5032546;28;20516;-78
2021/12/26 00:31:06;;;;;;;522.50;37.67;;;5.20;99.90;;;;;;5033864;28;20465;-77
2021/12/26 00:33:32;;;;;;;395.00;26.97;;;5.20;99.90;;;;;;5031395;28;20472;-77
2021/12/26 00:36:02;;;;;;;334.27;27.20;;;5.20;99.90;;;;;;5031187;28;20442;-77
2021/12/26 00:38:29;;;;;;;388.37;31.23;;;5.20;99.90;;;;;;5030473;28;20447;-77
2021/12/26 00:40:55;;;;;;;314.33;27.00;;;5.10;99.90;;;;;;5030182;28;20516;-78
2021/12/26 00:43:22;;;;;;;335.73;24.63;;;5.30;99.90;;;;;;5030621;28;20427;-77
2021/12/26 00:45:48;;;;;;;216.67;19.57;;;5.20;99.90;;;;;;5032094;28;20521;-77
2021/12/26 00:48:14;;;;;;;429.47;30.57;;;5.20;99.90;;;;;;5031771;28;20431;-77
2021/12/26 00:50:43;;;;;;;190.67;17.83;;;5.20;99.90;;;;;;5013922;28;20278;-78
2021/12/26 00:53:09;;;;;;;320.43;28.87;;;5.20;99.90;;;;;;5031065;28;20566;-77
2021/12/26 00:55:35;;;;;;;222.50;20.90;;;5.20;99.90;;;;;;5029861;28;20426;-77
2021/12/26 00:58:01;;;;;;;284.77;23.77;;;5.10;99.90;;;;;;5029821;28;20506;-77
2021/12/26 01:00:31;;;;;;;212.03;23.03;;;5.20;99.90;;;;;;5028388;28;20929;-77
2021/12/26 01:02:59;;;;;;;205.67;30.80;;;5.20;99.90;;;;;;5028841;28;20427;-77
2021/12/26 01:05:26;;;;;;;201.37;32.97;;;5.30;99.90;;;;;;5029988;28;20474;-77
2021/12/26 01:08:00;;;;;;;289.97;28.00;;;5.20;99.90;;;;;;5030802;28;20446;-77
2021/12/26 01:10:33;;;;;;;167.00;19.37;;;5.20;99.90;;;;;;5031044;28;20446;-77
2021/12/26 01:13:08;;;;;;;316.63;24.90;;;5.20;99.90;;;;;;5030646;28;20518;-77
2021/12/26 01:15:34;;;;;;;272.07;26.13;;;5.20;99.90;;;;;;5030499;28;20522;-77
2021/12/26 01:17:59;;;;;;;331.73;27.13;;;5.10;99.90;;;;;;5030242;28;20538;-77
2021/12/26 01:20:45;;;;;;;438.37;29.73;;;5.20;99.90;;;;;;5028481;28;20481;-76
2021/12/26 01:23:14;;;;;;;269.70;22.10;;;5.10;99.90;;;;;;5027442;28;20176;-76
2021/12/26 01:25:40;;;;;;;151.30;16.30;;;5.10;99.90;;;;;;5031359;28;20837;-77
2021/12/26 01:28:06;;;;;;;248.23;19.53;;;5.10;99.90;;;;;;5030414;28;20451;-77
2021/12/26 01:30:33;;;;;;;256.10;19.33;;;5.10;99.90;;;;;;5029136;28;20435;-78
2021/12/26 01:32:59;;;;;;;350.03;24.60;;;5.20;99.90;;;;;;5029458;28;20509;-77
2021/12/26 01:35:25;;;;;;;240.97;21.77;;;5.10;99.90;;;;;;5030232;28;20850;-77
2021/12/26 01:37:50;;;;;;;186.50;19.60;;;5.00;99.90;;;;;;5028577;28;20204;-77
2021/12/26 01:40:16;;;;;;;210.90;17.70;;;5.00;99.90;;;;;;5026986;28;20212;-76
2021/12/26 01:42:42;;;;;;;190.80;14.37;;;5.20;99.90;;;;;;5028351;28;20211;-76
2021/12/26 01:45:10;;;;;;;127.80;14.13;;;5.00;99.90;;;;;;5028405;28;20187;-76
2021/12/26 01:47:36;;;;;;;326.40;24.87;;;5.00;99.90;;;;;;5026919;28;20442;-77
2021/12/26 01:50:04;;;;;;;349.37;28.10;;;5.00;99.90;;;;;;5028167;28;20797;-77
2021/12/26 01:52:29;;;;;;;306.07;24.50;;;4.90;99.90;;;;;;5028312;28;20185;-77
2021/12/26 01:55:20;;;;;;;272.33;19.87;;;4.90;99.90;;;;;;5028296;28;20485;-76
2021/12/26 01:57:47;;;;;;;249.23;21.30;;;4.90;99.90;;;;;;5028474;28;20290;-77
2021/12/26 02:00:13;;;;;;;431.50;21.27;;;5.00;99.90;;;;;;5011057;28;20500;-77
2021/12/26 02:02:39;;;;;;;293.87;23.10;;;5.00;99.90;;;;;;5027027;28;20419;-76
2021/12/26 02:05:05;;;;;;;248.53;20.33;;;5.00;99.90;;;;;;5028194;28;20434;-76
2021/12/26 02:07:31;;;;;;;236.93;18.00;;;5.00;99.90;;;;;;5029646;28;20207;-76
2021/12/26 02:09:56;;;;;;;156.93;13.90;;;5.00;99.90;;;;;;5014170;28;20423;-76
2021/12/26 02:12:22;;;;;;;264.37;22.17;;;5.00;99.90;;;;;;5030988;28;20669;-76
2021/12/26 02:14:48;;;;;;;296.00;22.20;;;5.10;99.90;;;;;;5032181;28;20238;-76
2021/12/26 02:17:17;;;;;;;152.00;17.23;;;5.00;99.90;;;;;;5030506;28;20192;-76
2021/12/26 02:19:44;;;;;;;213.30;18.60;;;5.10;99.90;;;;;;5031857;28;20287;-76
2021/12/26 02:22:14;;;;;;;376.67;26.20;;;5.00;99.90;;;;;;5031883;28;20419;-76
2021/12/26 02:25:09;;;;;;;390.57;26.90;;;5.20;99.90;;;;;;5031871;28;20451;-76
2021/12/26 02:27:32;;;;;;;435.93;26.83;;;4.80;99.90;;;;;;5031599;28;20474;-76
2021/12/26 02:30:17;;;;;;;245.30;24.80;;;4.90;99.90;;;;;;5031876;28;20477;-77
2021/12/26 02:32:48;;;;;;;230.17;19.27;;;4.90;99.90;;;;;;5031687;28;20998;-77
2021/12/26 02:35:16;;;;;;;449.67;28.43;;;4.90;99.90;;;;;;5031722;28;20849;-76
2021/12/26 02:37:42;;;;;;;362.33;28.07;;;4.90;99.90;;;;;;5031686;28;20470;-77
2021/12/26 02:40:08;;;;;;;260.53;21.77;;;4.80;99.90;;;;;;5031574;28;20467;-77
2021/12/26 02:42:34;;;;;;;262.30;22.40;;;4.90;99.90;;;;;;5031744;28;20500;-77
2021/12/26 02:45:00;;;;;;;404.20;29.23;;;4.90;99.90;;;;;;5031481;28;20418;-77
2021/12/26 02:47:43;;;;;;;331.50;23.07;;;4.90;99.90;;;;;;5031604;28;20435;-77
2021/12/26 02:50:16;;;;;;;416.37;32.50;;;4.90;99.90;;;;;;5029537;28;20318;-77
2021/12/26 02:52:43;;;;;;;219.83;19.97;;;4.90;99.90;;;;;;5031216;28;20473;-77
2021/12/26 02:55:10;;;;;;;219.03;19.10;;;4.90;99.90;;;;;;5031090;28;20454;-77
2021/12/26 02:57:36;;;;;;;354.30;27.30;;;4.80;99.90;;;;;;5031191;28;20524;-77
2021/12/26 03:00:15;;;;;;;232.37;19.67;;;4.90;99.90;;;;;;5031224;28;20454;-77
2021/12/26 03:02:42;;;;;;;326.27;22.27;;;4.90;99.90;;;;;;5029686;28;20407;-77
2021/12/26 03:05:08;;;;;;;391.77;28.43;;;4.90;99.90;;;;;;5012905;28;20429;-77
2021/12/26 03:07:34;;;;;;;135.13;18.93;;;4.80;99.90;;;;;;5029187;28;20439;-77
2021/12/26 03:10:01;;;;;;;209.70;20.07;;;4.80;99.90;;;;;;5030906;28;20927;-77
2021/12/26 03:12:29;;;;;;;330.80;26.23;;;4.80;99.90;;;;;;5029599;28;20506;-77
2021/12/26 03:14:55;;;;;;;255.30;19.50;;;4.80;99.90;;;;;;5031116;28;20418;-77
2021/12/26 03:17:21;;;;;;;146.23;16.10;;;4.70;99.90;;;;;;5030272;28;20450;-77
2021/12/26 03:19:46;;;;;;;188.57;20.67;;;4.80;99.90;;;;;;5030247;28;20725;-77
2021/12/26 03:22:14;;;;;;;91.90;15.70;;;4.80;99.90;;;;;;5029370;28;20957;-77
2021/12/26 03:24:42;;;;;;;100.70;14.93;;;4.80;99.90;;;;;;5029542;28;20274;-77
2021/12/26 03:27:07;;;;;;;118.70;16.03;;;4.80;99.90;;;;;;5030940;28;20447;-77
2021/12/26 03:29:33;;;;;;;112.67;14.80;;;4.80;99.90;;;;;;5030655;28;20457;-78
2021/12/26 03:31:59;;;;;;;144.77;16.57;;;4.70;99.90;;;;;;5030869;28;20204;-77
2021/12/26 03:34:25;;;;;;;83.10;13.80;;;4.80;99.90;;;;;;5030902;28;20443;-77
2021/12/26 03:36:52;;;;;;;129.30;16.23;;;4.80;99.90;;;;;;5031299;28;20188;-78
2021/12/26 03:39:19;;;;;;;85.40;15.50;;;4.90;99.90;;;;;;5030873;28;20266;-78
2021/12/26 03:41:45;;;;;;;41.20;12.60;;;4.90;99.90;;;;;;5031999;28;20865;-78
2021/12/26 03:44:12;;;;;;;140.57;17.80;;;5.00;99.90;;;;;;5031745;28;20442;-77
2021/12/26 03:46:38;;;;;;;56.97;14.40;;;4.90;99.90;;;;;;5032159;28;20528;-78
2021/12/26 03:49:05;;;;;;;36.40;12.03;;;5.00;99.90;;;;;;5032687;28;20881;-78
2021/12/26 03:51:33;;;;;;;40.03;11.63;;;4.90;99.90;;;;;;5033069;28;20818;-77
2021/12/26 03:54:00;;;;;;;26.33;11.70;;;4.90;99.90;;;;;;5033218;28;20430;-78
2021/12/26 03:56:26;;;;;;;18.80;10.47;;;5.00;99.90;;;;;;5034005;28;20428;-78
2021/12/26 03:58:52;;;;;;;28.23;11.93;;;5.00;99.90;;;;;;5030587;28;20447;-77
2021/12/26 04:01:17;;;;;;;18.27;11.07;;;4.90;99.90;;;;;;5030269;28;20208;-77
2021/12/26 04:03:43;;;;;;;23.13;11.20;;;5.00;99.90;;;;;;5030205;28;20215;-77
2021/12/26 04:06:09;;;;;;;22.83;12.70;;;5.00;99.90;;;;;;5030263;28;20177;-77
2021/12/26 04:08:34;;;;;;;22.60;11.20;;;5.00;99.90;;;;;;5030189;28;20239;-77
2021/12/26 04:11:00;;;;;;;25.23;12.07;;;5.20;99.90;;;;;;5030432;28;20189;-77
2021/12/26 04:13:26;;;;;;;18.10;10.47;;;5.00;99.90;;;;;;5012671;28;20227;-77
2021/12/26 04:15:51;;;;;;;41.03;13.93;;;5.10;99.90;;;;;;5030675;28;20198;-77
2021/12/26 04:18:18;;;;;;;32.43;12.00;;;5.10;99.90;;;;;;5030877;28;20207;-78
2021/12/26 04:20:44;;;;;;;37.63;13.07;;;5.10;99.90;;;;;;5031469;28;20247;-78
2021/12/26 04:23:11;;;;;;;25.90;11.73;;;5.00;99.90;;;;;;5031707;28;20443;-76
2021/12/26 04:25:37;;;;;;;24.20;12.70;;;5.00;99.90;;;;;;5029690;28;20991;-77
2021/12/26 04:28:03;;;;;;;21.53;10.80;;;5.00;99.90;;;;;;5034497;28;20470;-77
2021/12/26 04:30:29;;;;;;;49.27;15.00;;;5.00;99.90;;;;;;5015265;28;20279;-78
2021/12/26 04:32:55;;;;;;;28.53;11.90;;;4.90;99.90;;;;;;5018895;28;20431;-76
2021/12/26 04:35:21;;;;;;;16.03;9.50;;;4.90;99.90;;;;;;5050537;28;20591;-76
2021/12/26 04:37:47;;;;;;;17.60;9.83;;;5.00;99.90;;;;;;5039004;28;20446;-79
2021/12/26 04:40:15;;;;;;;15.20;9.73;;;4.90;99.90;;;;;;5034366;28;20462;-77
2021/12/26 04:42:43;;;;;;;15.03;9.40;;;4.90;99.90;;;;;;5030833;28;20184;-77
2021/12/26 04:45:09;;;;;;;16.87;10.43;;;4.90;99.90;;;;;;5033127;28;20545;-80
2021/12/26 04:47:37;;;;;;;19.53;11.27;;;4.90;99.90;;;;;;5030883;28;20463;-76
2021/12/26 04:50:07;;;;;;;13.57;9.80;;;4.90;99.90;;;;;;5033124;28;20432;-77
2021/12/26 04:52:34;;;;;;;17.23;9.73;;;4.80;99.90;;;;;;5034277;28;20466;-78
2021/12/26 04:55:02;;;;;;;12.20;9.43;;;4.90;99.90;;;;;;5034412;28;20423;-77
2021/12/26 04:57:28;;;;;;;16.23;9.93;;;4.90;99.90;;;;;;5031588;28;20511;-79
2021/12/26 04:59:54;;;;;;;12.73;9.53;;;4.90;99.90;;;;;;5032537;28;20473;-79
2021/12/26 05:02:19;;;;;;;16.63;9.90;;;4.90;99.90;;;;;;5030766;28;20433;-77
2021/12/26 05:04:45;;;;;;;15.03;9.87;;;4.90;99.90;;;;;;5033025;28;20510;-79
2021/12/26 05:07:11;;;;;;;12.43;9.20;;;5.10;99.90;;;;;;5032760;28;20192;-75
2021/12/26 05:09:36;;;;;;;13.50;9.57;;;5.00;99.90;;;;;;5029960;28;20187;-75
2021/12/26 05:12:02;;;;;;;12.90;8.83;;;5.10;99.90;;;;;;5028441;28;20226;-79
2021/12/26 05:14:28;;;;;;;27.57;15.20;;;5.00;99.90;;;;;;5019385;28;20221;-81
2021/12/26 05:16:54;;;;;;;31.97;18.20;;;5.10;99.90;;;;;;5002311;28;20511;-79
2021/12/26 05:19:19;;;;;;;46.23;23.50;;;5.10;99.90;;;;;;4998303;28;20685;-77
2021/12/26 05:21:45;;;;;;;34.47;20.27;;;5.00;99.90;;;;;;5028081;28;20233;-78
2021/12/26 05:24:11;;;;;;;27.60;14.33;;;5.10;99.90;;;;;;5012062;28;20645;-78
2021/12/26 05:26:36;;;;;;;69.67;32.33;;;5.00;99.90;;;;;;5032266;28;20168;-77
2021/12/26 05:29:02;;;;;;;50.50;23.37;;;5.10;99.90;;;;;;5030689;28;20215;-79
2021/12/26 05:31:27;;;;;;;31.17;14.37;;;5.10;99.90;;;;;;5013470;28;20205;-76
2021/12/26 05:33:53;;;;;;;20.57;11.40;;;5.10;99.90;;;;;;5029425;28;20196;-74
2021/12/26 05:36:19;;;;;;;21.60;11.07;;;5.10;99.90;;;;;;5028316;28;20190;-76
2021/12/26 05:38:44;;;;;;;20.20;10.03;;;5.10;99.90;;;;;;5034153;28;20295;-78
2021/12/26 05:41:10;;;;;;;40.67;11.70;;;5.10;99.90;;;;;;5016507;28;20223;-79
2021/12/26 05:43:36;;;;;;;110.63;14.43;;;5.10;99.90;;;;;;5039353;28;20183;-79
2021/12/26 05:46:01;;;;;;;25.80;11.50;;;5.00;99.90;;;;;;5021564;28;20192;-78
2021/12/26 05:48:27;;;;;;;59.27;13.37;;;5.10;99.90;;;;;;5038023;28;20570;-79
2021/12/26 05:50:53;;;;;;;22.80;10.20;;;5.00;99.90;;;;;;5041047;28;20261;-78
2021/12/26 05:53:19;;;;;;;18.90;10.07;;;5.10;99.90;;;;;;5038656;28;20184;-78
2021/12/26 05:55:45;;;;;;;18.57;10.70;;;5.00;99.90;;;;;;5039036;28;20657;-79
2021/12/26 05:58:10;;;;;;;19.10;11.33;;;5.10;99.90;;;;;;5038509;28;20449;-79
2021/12/26 06:00:36;;;;;;;23.67;11.07;;;5.00;99.90;;;;;;5038230;28;20212;-78
2021/12/26 06:03:02;;;;;;;13.40;10.13;;;5.00;99.90;;;;;;5035517;28;20180;-78
2021/12/26 06:05:28;;;;;;;17.63;10.57;;;5.00;99.90;;;;;;5035490;28;20176;-78
2021/12/26 06:07:53;;;;;;;18.20;11.07;;;5.00;99.90;;;;;;5035548;28;20470;-79
2021/12/26 06:10:19;;;;;;;15.50;10.73;;;5.00;99.90;;;;;;5034808;28;20247;-79
2021/12/26 06:12:45;;;;;;;17.57;9.30;;;5.00;99.90;;;;;;5034496;28;20196;-78
2021/12/26 06:15:13;;;;;;;14.13;8.90;;;5.00;99.90;;;;;;5016728;28;20250;-78
2021/12/26 06:17:39;;;;;;;10.30;7.67;;;5.00;99.90;;;;;;5032184;28;20450;-78
2021/12/26 06:20:11;;;;;;;26.90;9.87;;;5.00;99.90;;;;;;5033731;28;20455;-77
2021/12/26 06:22:37;;;;;;;14.47;9.77;;;5.00;99.90;;;;;;5033310;28;20427;-77
2021/12/26 06:25:03;;;;;;;35.00;11.70;;;5.10;99.90;;;;;;5031964;28;20426;-78
2021/12/26 06:27:28;;;;;;;56.03;14.67;;;5.00;99.90;;;;;;5015279;28;20208;-77
2021/12/26 06:29:54;;;;;;;24.10;12.60;;;4.90;99.90;;;;;;5032719;28;20423;-77
2021/12/26 06:32:19;;;;;;;44.03;12.50;;;4.90;99.90;;;;;;5033672;28;20602;-77
2021/12/26 06:34:45;;;;;;;33.83;10.20;;;5.00;99.90;;;;;;5032432;28;20180;-76
2021/12/26 06:37:11;;;;;;;56.77;13.30;;;5.00;99.90;;;;;;5037625;28;20192;-79
2021/12/26 06:39:36;;;;;;;16.70;10.13;;;5.00;99.90;;;;;;5031169;28;20191;-76
2021/12/26 06:42:02;;;;;;;73.23;12.97;;;4.90;99.90;;;;;;5030660;28;20180;-75
2021/12/26 06:44:28;;;;;;;68.67;12.33;;;4.90;99.90;;;;;;5032181;28;20548;-78
2021/12/26 06:46:54;;;;;;;28.47;11.00;;;5.00;99.90;;;;;;5033437;28;20633;-75
2021/12/26 06:49:19;;;;;;;56.90;12.97;;;5.00;99.90;;;;;;5031594;28;20438;-75
2021/12/26 06:51:46;;;;;;;43.37;10.67;;;4.90;99.90;;;;;;5031411;28;20196;-78
2021/12/26 06:54:11;;;;;;;55.70;12.97;;;4.90;99.90;;;;;;5031707;28;20672;-78
2021/12/26 06:56:37;;;;;;;31.17;9.63;;;5.00;99.90;;;;;;5031602;28;20427;-78
2021/12/26 06:59:03;;;;;;;18.10;9.57;;;4.90;99.90;;;;;;5031290;28;20207;-78
2021/12/26 07:01:29;;;;;;;16.43;9.57;;;5.00;99.90;;;;;;5031644;28;20204;-77
2021/12/26 07:03:54;;;;;;;17.63;9.50;;;4.90;99.90;;;;;;5031885;28;20754;-76
2021/12/26 07:06:20;;;;;;;12.20;7.80;;;4.80;99.90;;;;;;5031970;28;20183;-77
2021/12/26 07:08:46;;;;;;;13.87;9.13;;;4.90;99.90;;;;;;5013810;28;20673;-77
2021/12/26 07:11:13;;;;;;;13.47;8.90;;;4.90;99.90;;;;;;5030581;28;20207;-77
2021/12/26 07:13:39;;;;;;;14.50;9.23;;;4.90;99.90;;;;;;5031735;28;20754;-76
2021/12/26 07:16:05;;;;;;;14.70;8.63;;;4.90;99.90;;;;;;5030354;28;20459;-75
2021/12/26 07:18:30;;;;;;;12.47;8.63;;;4.90;99.90;;;;;;5031562;28;20330;-77
2021/12/26 07:20:56;;;;;;;14.73;9.07;;;4.90;99.90;;;;;;5031667;28;20277;-76
2021/12/26 07:23:22;;;;;;;14.03;8.93;;;5.00;99.90;;;;;;5031785;28;20181;-77
2021/12/26 07:25:47;;;;;;;15.93;9.70;;;4.80;99.90;;;;;;5031569;28;20184;-77
2021/12/26 07:28:13;;;;;;;19.60;9.37;;;4.90;99.90;;;;;;5031415;28;20200;-77
2021/12/26 07:30:39;;;;;;;19.33;9.80;;;4.90;99.90;;;;;;5031904;28;20185;-76
2021/12/26 07:33:04;;;;;;;63.23;13.53;;;5.00;99.90;;;;;;5031598;28;20192;-77
2021/12/26 07:35:30;;;;;;;16.53;9.60;;;5.00;99.90;;;;;;5030304;28;20231;-78
2021/12/26 07:37:56;;;;;;;77.67;18.40;;;5.00;99.90;;;;;;5031452;28;20695;-77
2021/12/26 07:40:21;;;;;;;56.00;16.27;;;5.00;99.90;;;;;;5031328;28;20223;-77
2021/12/26 07:42:47;;;;;;;18.10;10.70;;;4.90;99.90;;;;;;5031300;28;20208;-76
2021/12/26 07:45:13;;;;;;;18.83;10.67;;;5.10;99.90;;;;;;5029909;28;20184;-76
2021/12/26 07:47:39;;;;;;;11.93;8.20;;;5.00;99.90;;;;;;5030018;28;20200;-77
2021/12/26 07:50:06;;;;;;;5.30;4.80;;;5.00;99.90;;;;;;5031030;28;20183;-75
2021/12/26 07:52:36;;;;;;;6.70;5.33;;;5.10;99.90;;;;;;5031244;28;20428;-77
2021/12/26 07:55:03;;;;;;;6.40;4.70;;;5.30;99.90;;;;;;5031051;28;20430;-77
2021/12/26 07:57:29;;;;;;;7.77;4.90;;;5.40;99.90;;;;;;5031263;28;21115;-77
2021/12/26 07:59:55;;;;;;;4.60;4.20;;;5.40;99.90;;;;;;5030943;28;20474;-76
2021/12/26 08:02:20;;;;;;;8.20;5.40;;;5.60;99.90;;;;;;5031117;28;20414;-77
2021/12/26 08:04:47;;;;;;;2.60;2.23;;;5.70;99.90;;;;;;5030230;28;20538;-77
2021/12/26 08:07:13;;;;;;;3.03;2.67;;;5.70;99.90;;;;;;5030798;28;20192;-77
2021/12/26 08:09:39;;;;;;;2.70;2.40;;;5.80;99.90;;;;;;5030267;28;21086;-77
2021/12/26 08:12:05;;;;;;;2.70;2.40;;;5.90;99.90;;;;;;5030404;28;20446;-77
2021/12/26 08:14:30;;;;;;;4.20;3.23;;;5.90;99.90;;;;;;5030440;28;20189;-76
2021/12/26 08:16:56;;;;;;;2.80;2.40;;;6.00;99.90;;;;;;5030121;28;20419;-77
2021/12/26 08:19:22;;;;;;;2.70;2.50;;;6.00;99.90;;;;;;5028465;28;20207;-76
2021/12/26 08:21:51;;;;;;;2.33;2.13;;;6.10;99.90;;;;;;5012240;28;20548;-76
2021/12/26 08:24:17;;;;;;;2.73;2.50;;;6.10;99.90;;;;;;5030008;28;20181;-76
2021/12/26 08:26:43;;;;;;;3.33;2.50;;;6.20;99.90;;;;;;5029852;28;20415;-76
2021/12/26 08:29:09;;;;;;;3.20;2.90;;;6.20;99.90;;;;;;5029988;28;20439;-77
2021/12/26 08:31:35;;;;;;;4.43;3.40;;;6.10;99.90;;;;;;5028326;28;20549;-77
2021/12/26 08:34:00;;;;;;;6.17;2.87;;;6.30;99.90;;;;;;5029887;28;20506;-77
2021/12/26 08:36:26;;;;;;;9.20;6.87;;;6.30;99.90;;;;;;5029775;28;20223;-76
2021/12/26 08:38:52;;;;;;;6.30;4.60;;;6.30;99.90;;;;;;5029585;28;20609;-76
2021/12/26 08:41:17;;;;;;;4.10;3.70;;;6.40;99.90;;;;;;5029536;28;20631;-77
2021/12/26 08:43:43;;;;;;;25.97;14.67;;;6.40;99.90;;;;;;5029790;28;20654;-77
2021/12/26 08:46:12;;;;;;;28.60;15.80;;;6.20;99.90;;;;;;5028588;28;20722;-77
2021/12/26 08:48:40;;;;;;;13.53;7.83;;;6.20;99.90;;;;;;5030111;28;20196;-76
2021/12/26 08:51:06;;;;;;;3.53;3.23;;;6.20;99.90;;;;;;5029803;28;20452;-76
2021/12/26 08:53:32;;;;;;;5.93;3.67;;;6.20;99.90;;;;;;5028587;28;20679;-76
2021/12/26 08:55:59;;;;;;;63.90;21.37;;;6.30;99.90;;;;;;5028432;28;20251;-77
2021/12/26 08:58:25;;;;;;;45.17;20.23;;;6.00;99.90;;;;;;5029801;28;20211;-76
2021/12/26 09:00:50;;;;;;;40.67;18.60;;;5.90;99.90;;;;;;5029838;28;20450;-77
2021/12/26 09:03:16;;;;;;;45.67;19.33;;;5.80;99.90;;;;;;5029683;28;20465;-76
2021/12/26 09:05:42;;;;;;;61.73;20.70;;;5.70;99.90;;;;;;5029608;28;20584;-76
2021/12/26 09:08:10;;;;;;;42.00;17.50;;;5.80;99.90;;;;;;5029523;28;20570;-77
2021/12/26 09:10:40;;;;;;;47.40;18.60;;;5.60;99.90;;;;;;5029636;28;20241;-76
2021/12/26 09:13:07;;;;;;;69.13;21.37;;;5.60;99.90;;;;;;5029119;28;20519;-76
2021/12/26 09:15:33;;;;;;;77.97;20.67;;;5.60;99.90;;;;;;5029281;28;20538;-76
2021/12/26 09:17:59;;;;;;;28.80;16.00;;;5.60;99.90;;;;;;5029608;28;20447;-76
2021/12/26 09:20:26;;;;;;;39.17;19.90;;;5.60;99.90;;;;;;5029579;28;20528;-76
2021/12/26 09:22:52;;;;;;;32.17;18.30;;;5.70;99.90;;;;;;5029651;28;20929;-76
2021/12/26 09:25:17;;;;;;;37.57;17.20;;;6.00;99.90;;;;;;5029439;28;20423;-76
2021/12/26 09:27:43;;;;;;;42.70;18.17;;;5.80;99.90;;;;;;5028124;28;20439;-76
2021/12/26 09:30:11;;;;;;;47.43;19.03;;;5.80;99.90;;;;;;5029598;28;20207;-76
2021/12/26 09:32:38;;;;;;;46.63;21.07;;;5.80;99.90;;;;;;5029139;28;20271;-76
2021/12/26 09:35:04;;;;;;;44.73;23.13;;;5.90;99.90;;;;;;5028752;28;21015;-77
2021/12/26 09:37:30;;;;;;;38.20;19.00;;;6.00;99.90;;;;;;5027251;28;20443;-77
2021/12/26 09:39:56;;;;;;;36.90;18.50;;;6.00;99.90;;;;;;5028716;28;20459;-76
2021/12/26 09:42:24;;;;;;;66.77;20.20;;;6.00;99.90;;;;;;5028703;28;20415;-77
2021/12/26 09:44:50;;;;;;;43.03;18.50;;;5.90;99.90;;;;;;5027354;28;20525;-77
2021/12/26 09:47:16;;;;;;;45.70;21.43;;;6.00;99.90;;;;;;5028090;28;20449;-77
2021/12/26 09:49:42;;;;;;;32.97;18.53;;;6.00;99.90;;;;;;5027409;28;20411;-77
2021/12/26 09:52:08;;;;;;;56.67;23.30;;;6.10;99.90;;;;;;5026074;28;20223;-77
2021/12/26 09:54:34;;;;;;;60.60;23.77;;;6.20;99.90;;;;;;5026138;28;20184;-77
2021/12/26 09:57:00;;;;;;;35.33;19.17;;;6.40;99.90;;;;;;5025824;28;20928;-77
2021/12/26 09:59:30;;;;;;;40.30;20.40;;;6.20;99.90;;;;;;5025799;28;20427;-77
2021/12/26 10:02:00;;;;;;;39.73;20.10;;;6.40;99.90;;;;;;5027397;28;20426;-76
2021/12/26 10:04:31;;;;;;;36.80;18.90;;;6.50;99.90;;;;;;5027160;28;20422;-77
2021/12/26 10:06:58;;;;;;;43.57;21.60;;;6.60;99.90;;;;;;5027094;28;20446;-77
2021/12/26 10:09:25;;;;;;;35.80;20.17;;;6.60;99.90;;;;;;5027084;28;20450;-76
2021/12/26 10:11:53;;;;;;;36.33;19.70;;;6.60;99.90;;;;;;5025709;28;20804;-76
2021/12/26 10:14:21;;;;;;;40.93;18.30;;;6.60;99.90;;;;;;5026823;28;20416;-76
2021/12/26 10:16:53;;;;;;;26.90;16.70;;;6.70;99.90;;;;;;5008851;28;20427;-76
2021/12/26 10:19:19;;;;;;;31.40;17.53;;;6.60;99.90;;;;;;5026707;28;20445;-76
2021/12/26 10:21:54;;;;;;;28.43;17.80;;;6.80;99.90;;;;;;5026820;28;20474;-76
2021/12/26 10:24:22;;;;;;;27.20;16.50;;;6.90;99.90;;;;;;5025647;28;20945;-77
2021/12/26 10:26:53;;;;;;;25.77;15.90;;;7.10;99.90;;;;;;5025798;28;20952;-77
2021/12/26 10:29:25;;;;;;;23.43;15.47;;;7.20;99.90;;;;;;5030430;28;20435;-76
2021/12/26 10:32:08;;;;;;;23.60;15.90;;;7.30;99.90;;;;;;5030347;28;20429;-76
2021/12/26 10:35:04;;;;;;;15.37;10.10;;;7.40;99.90;;;;;;5029277;28;20469;-76
2021/12/26 10:37:44;;;;;;;3.80;3.07;;;7.60;99.90;;;;;;5027421;28;20446;-77
2021/12/26 10:40:14;;;;;;;8.10;4.57;;;7.80;99.90;;;;;;5029342;28;20994;-77
2021/12/26 10:42:45;;;;;;;2.80;2.60;;;7.80;99.90;;;;;;5030471;28;20531;-75
2021/12/26 10:45:13;;;;;;;3.80;3.37;;;7.90;99.90;;;;;;5030607;28;20411;-77
2021/12/26 10:47:43;;;;;;;4.93;3.70;;;7.80;99.90;;;;;;5029005;28;20439;-78
2021/12/26 10:50:13;;;;;;;4.27;3.87;;;7.80;99.90;;;;;;5030116;28;20434;-75
2021/12/26 10:52:48;;;;;;;3.20;2.93;;;7.80;99.90;;;;;;5030100;28;20770;-77
2021/12/26 10:55:33;;;;;;;3.67;3.30;;;7.80;99.90;;;;;;5030031;28;20450;-77
2021/12/26 10:58:05;;;;;;;5.43;4.07;;;7.90;99.90;;;;;;5030005;28;20465;-76
2021/12/26 11:00:39;;;;;;;3.70;3.40;;;8.00;99.90;;;;;;5029612;28;20553;-76
2021/12/26 11:03:11;;;;;;;2.53;2.40;;;8.00;99.90;;;;;;5030002;28;20414;-76
2021/12/26 11:05:45;;;;;;;2.03;1.90;;;8.10;99.90;;;;;;5029543;28;20426;-75
2021/12/26 11:08:13;;;;;;;2.80;2.00;;;8.30;99.90;;;;;;5028019;28;20457;-76
2021/12/26 11:10:46;;;;;;;9.13;6.73;;;8.40;99.90;;;;;;5011747;28;20424;-77
2021/12/26 11:13:20;;;;;;;16.37;11.00;;;8.70;99.90;;;;;;5029427;28;20453;-76
2021/12/26 11:15:46;;;;;;;22.37;13.67;;;8.90;99.90;;;;;;5029727;28;20419;-77
2021/12/26 11:18:17;;;;;;;21.07;13.67;;;8.70;99.90;;;;;;5029039;28;20445;-75
2021/12/26 11:20:50;;;;;;;24.33;15.37;;;8.60;99.90;;;;;;5029465;28;20455;-75
2021/12/26 11:23:18;;;;;;;23.20;15.43;;;8.40;99.90;;;;;;5029512;28;20777;-75
2021/12/26 11:25:54;;;;;;;23.93;16.10;;;8.30;99.90;;;;;;5029336;28;20557;-75
2021/12/26 11:28:26;;;;;;;25.93;16.07;;;8.20;99.90;;;;;;5029146;28;20442;-75
2021/12/26 11:30:54;;;;;;;19.90;14.30;;;8.20;99.90;;;;;;5029092;28;20934;-75
2021/12/26 11:33:21;;;;;;;26.50;13.97;;;8.30;99.90;;;;;;5028889;28;20419;-75
2021/12/26 11:35:51;;;;;;;22.47;14.30;;;8.40;99.90;;;;;;5029006;28;20804;-75
2021/12/26 11:38:21;;;;;;;19.43;14.13;;;8.30;99.90;;;;;;5028287;28;20921;-75
2021/12/26 11:40:48;;;;;;;24.23;17.00;;;8.20;99.90;;;;;;5028218;28;20459;-75
2021/12/26 11:43:31;;;;;;;21.13;14.97;;;8.10;99.90;;;;;;5029015;28;20506;-74
2021/12/26 11:46:34;;;;;;;16.93;13.20;;;8.00;99.90;;;;;;5028768;28;20415;-75
2021/12/26 11:49:35;;;;;;;18.00;13.03;;;8.00;99.90;;;;;;5028636;28;20431;-74
2021/12/26 11:52:06;;;;;;;21.57;14.87;;;8.00;99.90;;;;;;5028666;28;20447;-74
2021/12/26 11:54:38;;;;;;;22.40;15.00;;;8.00;99.90;;;;;;5028695;28;20407;-74
2021/12/26 11:57:24;;;;;;;18.80;13.30;;;8.00;99.90;;;;;;5028510;28;20498;-75
2021/12/26 12:00:27;;;;;;;20.27;14.77;;;8.10;99.90;;;;;;5028815;28;20420;-74
2021/12/26 12:02:56;;;;;;;17.90;13.40;;;8.10;99.90;;;;;;5028507;28;20416;-75
2021/12/26 12:05:24;;;;;;;17.90;12.37;;;8.50;99.90;;;;;;5028565;28;20412;-74
2021/12/26 12:08:00;;;;;;;17.80;13.00;;;9.00;99.90;;;;;;5028211;28;20918;-74
2021/12/26 12:10:50;;;;;;;15.80;11.13;;;9.50;99.90;;;;;;5028361;28;20513;-74
2021/12/26 12:13:22;;;;;;;9.90;7.57;;;9.80;99.90;;;;;;5028143;28;20557;-75
2021/12/26 12:15:55;;;;;;;4.27;3.73;;;9.80;99.90;;;;;;5028139;28;20422;-75
2021/12/26 12:18:39;;;;;;;1.93;1.70;;;9.80;99.90;;;;;;5027982;28;20447;-75
2021/12/26 12:21:12;;;;;;;2.10;1.90;;;9.90;99.90;;;;;;5028103;28;20511;-75
2021/12/26 12:23:57;;;;;;;1.73;1.63;;;9.80;99.90;;;;;;5028180;28;20519;-74
2021/12/26 12:26:57;;;;;;;3.63;1.43;;;9.60;99.90;;;;;;5028001;28;20838;-74
2021/12/26 12:29:28;;;;;;;2.60;1.53;;;9.80;99.90;;;;;;5027885;28;20428;-74
2021/12/26 12:32:21;;;;;;;1.63;1.53;;;9.60;99.90;;;;;;5027860;28;20415;-74
2021/12/26 12:35:01;;;;;;;2.00;1.80;;;9.50;99.90;;;;;;5026219;28;20431;-74
2021/12/26 12:37:47;;;;;;;3.00;1.70;;;9.40;99.90;;;;;;5026213;28;21067;-74
2021/12/26 12:40:27;;;;;;;1.80;1.70;;;9.30;99.90;;;;;;5027824;28;20933;-75
2021/12/26 12:43:12;;;;;;;2.00;1.90;;;9.10;99.90;;;;;;5027835;28;20420;-75
2021/12/26 12:45:53;;;;;;;2.57;2.00;;;9.00;99.90;;;;;;5027814;28;20908;-75